createdAt,value
2018-10-21T00:00:10.974Z,70.54
2018-10-21T00:02:39.649Z,70.97
2018-10-21T00:05:09.735Z,70.28
2018-10-21T00:07:39.032Z,70.04
2018-10-21T00:10:09.066Z,69.71
2018-10-21T00:12:38.470Z,70.01
2018-10-21T00:15:09.070Z,70.09
2018-10-21T00:17:37.718Z,69.14
2018-10-21T00:20:07.245Z,70.16
2018-10-21T00:22:36.058Z,69.31
2018-10-21T00:25:05.113Z,69.94
2018-10-21T00:27:33.826Z,69.79
2018-10-21T00:30:02.570Z,69.95
2018-10-21T00:32:36.355Z,69.94
2018-10-21T00:35:05.627Z,70.51
2018-10-21T00:37:34.281Z,70.01
2018-10-21T00:40:02.961Z,69.83
2018-10-21T00:42:31.746Z,70.03
2018-10-21T00:45:00.450Z,69.59
2018-10-21T00:47:29.194Z,69.71
2018-10-21T00:49:58.194Z,69.62
2018-10-21T00:52:27.473Z,69.66
2018-10-21T00:54:56.133Z,69.31
2018-10-21T00:57:24.804Z,69.86
2018-10-21T00:59:53.610Z,69.47
2018-10-21T01:16:35.521Z,70.88
2018-10-21T01:19:04.557Z,71.00
2018-10-21T01:21:33.373Z,71.10
2018-10-21T01:24:02.326Z,70.21
2018-10-21T01:26:31.069Z,70.37
2018-10-21T01:28:59.794Z,70.33
2018-10-21T01:31:28.558Z,69.97
2018-10-21T01:33:57.306Z,69.65
2018-10-21T01:36:26.529Z,69.57
2018-10-21T01:38:55.096Z,69.55
2018-10-21T01:43:58.429Z,69.18
2018-10-21T01:54:59.153Z,68.35
2018-10-21T01:57:27.818Z,68.45
2018-10-21T01:59:56.905Z,68.66
2018-10-21T02:02:26.091Z,68.15
2018-10-21T02:04:54.852Z,68.37
2018-10-21T02:07:23.598Z,67.60
2018-10-21T02:09:52.636Z,67.96
2018-10-21T02:12:21.982Z,67.58
2018-10-21T02:14:51.170Z,68.21
2018-10-21T02:17:20.283Z,67.75
2018-10-21T02:19:49.568Z,67.68
2018-10-21T02:22:18.712Z,68.08
2018-10-21T02:24:47.660Z,67.72
2018-10-21T02:27:16.982Z,68.19
2018-10-21T02:29:45.713Z,67.52
2018-10-21T02:32:14.476Z,68.06
2018-10-21T02:34:43.224Z,68.20
2018-10-21T02:37:11.963Z,68.43
2018-10-21T02:39:40.714Z,68.36
2018-10-21T02:42:09.454Z,68.01
2018-10-21T02:44:38.243Z,68.77
2018-10-21T02:47:07.173Z,68.49
2018-10-21T02:49:35.983Z,68.77
2018-10-21T02:52:08.696Z,69.61
2018-10-21T02:54:37.762Z,69.50
2018-10-21T02:57:08.151Z,70.29
2018-10-21T02:59:37.181Z,70.43
2018-10-21T03:02:06.141Z,70.60
2018-10-21T03:04:34.925Z,71.31
2018-10-21T03:07:03.686Z,70.54
2018-10-21T03:09:32.742Z,70.77
2018-10-21T03:12:01.591Z,70.44
2018-10-21T03:14:30.326Z,69.21
2018-10-21T03:16:59.338Z,69.67
2018-10-21T03:19:28.065Z,69.54
2018-10-21T03:21:56.754Z,70.15
2018-10-21T03:24:25.461Z,69.15
2018-10-21T03:26:54.168Z,69.50
2018-10-21T03:29:22.915Z,69.14
2018-10-21T03:31:51.655Z,69.54
2018-10-21T03:34:20.390Z,68.70
2018-10-21T03:36:49.047Z,68.89
2018-10-21T03:39:17.954Z,68.79
2018-10-21T03:41:46.694Z,68.74
2018-10-21T03:44:15.342Z,68.18
2018-10-21T03:46:44.046Z,68.56
2018-10-21T03:49:12.864Z,68.97
2018-10-21T03:51:41.566Z,69.14
2018-10-21T03:54:10.358Z,69.12
2018-10-21T03:56:39.102Z,68.39
2018-10-21T03:59:07.869Z,67.96
2018-10-21T04:01:36.601Z,68.76
2018-10-21T04:04:05.736Z,68.77
2018-10-21T04:06:34.670Z,68.40
2018-10-21T04:09:03.525Z,69.36
2018-10-21T04:11:32.323Z,68.64
2018-10-21T04:14:01.086Z,68.75
2018-10-21T04:16:29.855Z,68.05
2018-10-21T04:18:58.845Z,68.44
2018-10-21T04:21:27.611Z,68.74
2018-10-21T04:23:56.237Z,70.18
2018-10-21T04:26:25.046Z,69.99
2018-10-21T04:28:53.774Z,69.78
2018-10-21T04:31:22.501Z,69.87
2018-10-21T04:33:51.467Z,70.67
2018-10-21T04:36:22.110Z,70.49
2018-10-21T04:40:10.340Z,70.81
2018-10-21T04:42:39.015Z,71.44
2018-10-21T04:45:08.463Z,70.83
2018-10-21T04:47:37.200Z,71.72
2018-10-21T04:50:07.256Z,71.01
2018-10-21T04:52:36.024Z,71.53
2018-10-21T04:55:06.590Z,71.27
2018-10-21T04:57:36.541Z,71.67
2018-10-21T05:00:07.710Z,71.94
2018-10-21T05:02:36.659Z,71.93
2018-10-21T05:05:06.106Z,71.72
2018-10-21T05:07:34.883Z,71.94
2018-10-21T05:10:03.830Z,71.61
2018-10-21T05:12:32.527Z,72.18
2018-10-21T05:15:01.477Z,72.10
2018-10-21T05:17:30.363Z,72.36
2018-10-21T05:19:59.022Z,72.62
2018-10-21T05:22:27.858Z,72.50
2018-10-21T05:24:56.529Z,72.33
2018-10-21T05:27:25.245Z,72.22
2018-10-21T05:29:54.121Z,72.64
2018-10-21T05:32:22.840Z,71.74
2018-10-21T05:34:51.552Z,71.94
2018-10-21T05:37:20.301Z,71.97
2018-10-21T05:39:48.951Z,71.54
2018-10-21T05:42:17.732Z,71.82
2018-10-21T05:44:46.407Z,71.20
2018-10-21T05:47:15.264Z,71.40
2018-10-21T05:49:43.849Z,71.73
2018-10-21T05:52:12.885Z,72.43
2018-10-21T05:54:41.522Z,72.10
2018-10-21T05:57:10.254Z,71.43
2018-10-21T05:59:39.215Z,71.39
2018-10-21T06:02:07.958Z,71.16
2018-10-21T06:04:36.620Z,71.17
2018-10-21T06:07:05.720Z,71.43
2018-10-21T06:09:34.511Z,71.20
2018-10-21T06:12:03.334Z,71.80
2018-10-21T06:14:32.078Z,72.58
2018-10-21T06:17:36.398Z,72.92
2018-10-21T06:20:12.610Z,72.98
2018-10-21T06:22:43.846Z,72.42
2018-10-21T06:25:12.533Z,73.49
2018-10-21T06:27:41.512Z,73.18
2018-10-21T06:30:11.703Z,73.62
2018-10-21T06:32:40.649Z,74.38
2018-10-21T06:35:10.181Z,74.24
2018-10-21T06:37:39.381Z,74.05
2018-10-21T06:40:10.306Z,73.63
2018-10-21T06:42:39.241Z,73.98
2018-10-21T06:45:09.609Z,74.29
2018-10-21T06:47:38.388Z,73.87
2018-10-21T06:50:09.229Z,73.78
2018-10-21T06:52:38.122Z,73.70
2018-10-21T06:55:07.101Z,73.41
2018-10-21T06:57:35.793Z,72.64
2018-10-21T07:00:04.770Z,73.41
2018-10-21T07:02:33.606Z,72.79
2018-10-21T07:05:02.358Z,72.87
2018-10-21T07:07:31.041Z,72.77
2018-10-21T07:09:59.854Z,73.13
2018-10-21T07:12:28.575Z,72.51
2018-10-21T07:14:57.474Z,72.41
2018-10-21T07:17:26.486Z,71.81
2018-10-21T07:19:55.203Z,71.43
2018-10-21T07:22:23.930Z,71.78
2018-10-21T07:24:52.730Z,70.71
2018-10-21T07:27:21.492Z,70.33
2018-10-21T07:29:50.259Z,70.55
2018-10-21T07:32:19.059Z,70.06
2018-10-21T07:34:47.867Z,70.32
2018-10-21T07:37:16.636Z,69.90
2018-10-21T07:39:45.288Z,69.93
2018-10-21T07:42:14.211Z,69.62
2018-10-21T07:44:49.147Z,69.20
2018-10-21T07:47:17.862Z,69.43
2018-10-21T07:49:46.637Z,69.07
2018-10-21T07:52:15.529Z,68.30
2018-10-21T07:54:46.166Z,67.72
2018-10-21T07:57:16.326Z,67.62
2018-10-21T07:59:45.409Z,68.39
2018-10-21T08:02:14.082Z,68.44
2018-10-21T08:04:42.771Z,68.15
2018-10-21T08:07:22.578Z,67.82
2018-10-21T08:09:51.966Z,67.51
2018-10-21T08:12:20.931Z,67.16
2018-10-21T08:14:49.767Z,66.64
2018-10-21T08:17:18.496Z,67.78
2018-10-21T08:19:47.146Z,66.95
2018-10-21T08:22:15.952Z,66.11
2018-10-21T08:24:44.685Z,67.09
2018-10-21T08:27:13.460Z,67.13
2018-10-21T08:29:42.172Z,67.50
2018-10-21T08:32:10.951Z,65.89
2018-10-21T08:34:39.603Z,65.97
2018-10-21T08:37:08.382Z,66.08
2018-10-21T08:39:37.166Z,64.83
2018-10-21T08:42:05.895Z,64.25
2018-10-21T08:44:34.654Z,63.87
2018-10-21T08:47:03.328Z,63.97
2018-10-21T08:49:32.083Z,63.34
2018-10-21T08:52:00.909Z,63.30
2018-10-21T08:54:29.553Z,63.21
2018-10-21T08:56:58.447Z,63.50
2018-10-21T08:59:27.233Z,63.34
2018-10-21T09:01:56.482Z,62.84
2018-10-21T09:04:25.258Z,63.55
2018-10-21T09:06:54.270Z,62.74
2018-10-21T09:09:23.042Z,63.25
2018-10-21T09:11:51.715Z,63.04
2018-10-21T09:14:20.439Z,62.79
2018-10-21T09:16:49.222Z,62.91
2018-10-21T09:19:18.081Z,62.87
2018-10-21T09:21:46.857Z,61.78
2018-10-21T09:24:15.534Z,62.38
2018-10-21T09:26:44.377Z,62.64
2018-10-21T09:29:13.229Z,62.09
2018-10-21T09:31:42.029Z,61.62
2018-10-21T09:34:10.884Z,61.84
2018-10-21T09:36:39.834Z,61.88
2018-10-21T09:39:12.042Z,61.53
2018-10-21T09:41:41.039Z,61.52
2018-10-21T09:44:10.714Z,60.39
2018-10-21T09:46:39.938Z,60.02
2018-10-21T09:49:09.654Z,60.33
2018-10-21T09:51:38.750Z,59.63
2018-10-21T09:54:07.576Z,58.97
2018-10-21T09:56:36.751Z,59.10
2018-10-21T09:59:05.945Z,59.10
2018-10-21T10:01:39.907Z,59.40
2018-10-21T10:04:09.358Z,59.06
2018-10-21T10:06:38.106Z,58.47
2018-10-21T10:09:09.681Z,58.49
2018-10-21T10:11:38.366Z,58.68
2018-10-21T10:14:07.165Z,58.76
2018-10-21T10:16:36.164Z,57.89
2018-10-21T10:19:05.406Z,57.95
2018-10-21T10:21:34.155Z,57.45
2018-10-21T10:24:02.890Z,56.87
2018-10-21T10:26:31.830Z,57.09
2018-10-21T10:29:00.603Z,56.43
2018-10-21T10:31:29.307Z,56.25
2018-10-21T10:33:58.093Z,56.88
2018-10-21T10:36:26.764Z,55.86
2018-10-21T10:38:55.514Z,54.61
2018-10-21T10:41:24.203Z,54.95
2018-10-21T10:43:52.839Z,54.94
2018-10-21T10:46:21.729Z,55.35
2018-10-21T10:48:50.501Z,54.46
2018-10-21T10:51:19.350Z,54.47
2018-10-21T10:53:48.106Z,55.16
2018-10-21T10:56:16.809Z,53.05
2018-10-21T10:58:45.517Z,53.46
2018-10-21T11:01:14.339Z,53.08
2018-10-21T11:03:43.002Z,52.11
2018-10-21T11:06:11.690Z,52.37
2018-10-21T11:08:40.646Z,53.85
2018-10-21T11:11:09.379Z,54.09
2018-10-21T11:13:38.222Z,52.39
2018-10-21T11:16:07.503Z,52.43
2018-10-21T11:18:36.254Z,50.88
2018-10-21T11:21:05.326Z,50.78
2018-10-21T11:23:34.087Z,49.81
2018-10-21T11:26:03.461Z,49.05
2018-10-21T11:28:32.282Z,47.29
2018-10-21T11:31:01.075Z,48.33
2018-10-21T11:33:29.850Z,45.91
2018-10-21T11:35:58.511Z,46.51
2018-10-21T11:38:27.338Z,45.36
2018-10-21T11:40:55.993Z,43.76
2018-10-21T11:43:24.927Z,43.22
2018-10-21T11:45:53.618Z,42.42
2018-10-21T11:48:22.353Z,41.39
2018-10-21T11:50:51.138Z,39.53
2018-10-21T11:53:20.085Z,38.43
2018-10-21T11:55:48.973Z,36.98
2018-10-21T11:58:18.111Z,35.90
2018-10-21T12:00:47.167Z,35.62
2018-10-21T12:03:16.133Z,35.12
2018-10-21T12:05:44.926Z,34.16
2018-10-21T12:08:14.086Z,34.39
2018-10-21T12:10:42.793Z,32.15
2018-10-21T12:13:11.637Z,31.11
2018-10-21T12:15:40.304Z,31.47
2018-10-21T12:18:09.490Z,31.28
2018-10-21T12:20:39.097Z,31.45
2018-10-21T12:23:08.010Z,29.71
2018-10-21T12:25:43.184Z,29.26
2018-10-21T12:28:11.935Z,28.10
2018-10-21T12:30:40.618Z,27.99
2018-10-21T12:33:09.306Z,28.23
2018-10-21T12:35:38.219Z,27.61
2018-10-21T12:38:06.934Z,26.52
2018-10-21T12:40:35.638Z,25.72
2018-10-21T12:43:04.602Z,25.55
2018-10-21T12:45:33.459Z,24.46
2018-10-21T12:48:02.229Z,27.47
2018-10-21T12:50:31.048Z,26.91
2018-10-21T12:52:59.862Z,25.51
2018-10-21T12:55:28.530Z,23.67
2018-10-21T12:57:57.328Z,22.86
2018-10-21T13:00:26.189Z,23.25
2018-10-21T13:02:54.868Z,23.78
2018-10-21T13:05:23.625Z,22.97
2018-10-21T13:07:52.462Z,23.96
2018-10-21T13:10:21.282Z,23.73
2018-10-21T13:12:50.309Z,22.85
2018-10-21T13:15:18.990Z,21.86
2018-10-21T13:17:47.702Z,22.36
2018-10-21T13:20:16.449Z,22.19
2018-10-21T13:22:45.221Z,22.36
2018-10-21T13:25:14.091Z,22.56
2018-10-21T13:27:42.754Z,21.62
2018-10-21T13:30:11.609Z,21.27
2018-10-21T13:32:40.381Z,21.48
2018-10-21T13:35:09.130Z,21.51
2018-10-21T13:37:38.027Z,21.03
2018-10-21T13:40:07.199Z,20.48
2018-10-21T13:42:36.007Z,20.19
2018-10-21T13:45:04.818Z,19.50
2018-10-21T13:47:33.629Z,19.36
2018-10-21T13:50:02.274Z,19.89
2018-10-21T13:52:31.006Z,19.93
2018-10-21T13:54:59.642Z,19.12
2018-10-21T13:57:28.306Z,18.96
2018-10-21T13:59:56.973Z,18.49
2018-10-21T14:02:25.752Z,20.27
2018-10-21T14:04:54.509Z,21.37
2018-10-21T14:07:23.385Z,22.80
2018-10-21T14:09:52.195Z,26.20
2018-10-21T14:12:20.957Z,27.96
2018-10-21T14:14:49.848Z,28.81
2018-10-21T14:17:18.746Z,29.50
2018-10-21T14:19:47.547Z,30.75
2018-10-21T14:22:16.372Z,31.80
2018-10-21T14:24:45.144Z,32.73
2018-10-21T14:27:13.895Z,32.63
2018-10-21T14:29:42.608Z,31.70
2018-10-21T14:32:11.347Z,33.05
2018-10-21T14:34:40.179Z,33.80
2018-10-21T14:37:08.872Z,34.82
2018-10-21T14:39:37.568Z,35.22
2018-10-21T14:42:06.431Z,35.09
2018-10-21T14:44:36.884Z,35.88
2018-10-21T14:47:05.826Z,36.33
2018-10-21T14:49:34.749Z,36.13
2018-10-21T14:52:03.523Z,36.49
2018-10-21T14:54:32.286Z,36.74
2018-10-21T14:57:01.433Z,38.53
2018-10-21T14:59:30.226Z,38.33
2018-10-21T15:01:59.321Z,40.01
2018-10-21T15:04:28.145Z,38.43
2018-10-21T15:06:56.959Z,38.15
2018-10-21T15:09:25.735Z,38.89
2018-10-21T15:11:54.418Z,39.24
2018-10-21T15:14:23.110Z,39.02
2018-10-21T15:16:51.956Z,38.84
2018-10-21T15:19:20.749Z,39.13
2018-10-21T15:21:49.762Z,39.05
2018-10-21T15:24:18.473Z,40.44
2018-10-21T15:26:47.174Z,40.07
2018-10-21T15:29:16.004Z,39.63
2018-10-21T15:31:44.659Z,40.35
2018-10-21T15:34:13.595Z,40.52
2018-10-21T15:36:42.401Z,40.31
2018-10-21T15:39:11.806Z,40.98
2018-10-21T15:41:40.844Z,41.80
2018-10-21T15:44:09.984Z,41.03
2018-10-21T15:46:38.937Z,42.47
2018-10-21T15:49:07.666Z,42.70
2018-10-21T15:51:36.468Z,42.33
2018-10-21T15:54:05.490Z,42.31
2018-10-21T15:56:34.465Z,42.58
2018-10-21T15:59:03.367Z,42.91
2018-10-21T16:01:32.097Z,43.21
2018-10-21T16:04:00.828Z,42.85
2018-10-21T16:06:29.569Z,43.70
2018-10-21T16:08:58.523Z,44.25
2018-10-21T16:11:27.362Z,45.43
2018-10-21T16:13:56.234Z,45.51
2018-10-21T16:16:24.934Z,45.51
2018-10-21T16:18:53.732Z,45.80
2018-10-21T16:21:22.487Z,45.72
2018-10-21T16:23:51.203Z,45.95
2018-10-21T16:26:20.093Z,45.90
2018-10-21T16:28:48.835Z,46.18
2018-10-21T16:31:17.547Z,47.23
2018-10-21T16:33:46.262Z,46.93
2018-10-21T16:36:15.033Z,47.55
2018-10-21T16:38:43.917Z,47.98
2018-10-21T16:41:12.662Z,47.38
2018-10-21T16:43:41.464Z,48.20
2018-10-21T16:46:10.183Z,47.86
2018-10-21T16:48:38.964Z,48.87
2018-10-21T16:51:08.212Z,48.00
2018-10-21T16:53:36.908Z,48.24
2018-10-21T16:56:05.877Z,48.32
2018-10-21T16:58:34.633Z,48.65
2018-10-21T17:01:03.532Z,48.53
2018-10-21T17:03:32.272Z,49.73
2018-10-21T17:06:01.805Z,50.09
2018-10-21T17:08:30.586Z,49.62
2018-10-21T17:10:59.388Z,49.86
2018-10-21T17:13:28.090Z,50.72
2018-10-21T17:15:56.917Z,50.49
2018-10-21T17:18:25.687Z,50.25
2018-10-21T17:20:54.515Z,50.51
2018-10-21T17:23:23.386Z,51.05
2018-10-21T17:25:52.195Z,51.99
2018-10-21T17:28:20.995Z,51.82
2018-10-21T17:30:49.803Z,51.97
2018-10-21T17:33:18.494Z,52.07
2018-10-21T17:35:47.359Z,52.25
2018-10-21T17:38:16.047Z,52.45
2018-10-21T17:40:44.897Z,53.32
2018-10-21T17:43:13.540Z,52.80
2018-10-21T17:45:42.245Z,53.24
2018-10-21T17:48:11.201Z,53.38
2018-10-21T17:50:40.014Z,53.58
2018-10-21T17:53:08.861Z,54.04
2018-10-21T17:55:37.612Z,53.91
2018-10-21T17:58:06.414Z,54.14
2018-10-21T18:00:35.095Z,55.00
2018-10-21T18:03:03.760Z,54.91
2018-10-21T18:05:32.637Z,55.16
2018-10-21T18:08:01.599Z,55.58
2018-10-21T18:10:30.337Z,56.09
2018-10-21T18:12:59.318Z,56.13
2018-10-21T18:15:27.955Z,56.39
2018-10-21T18:17:56.878Z,56.29
2018-10-21T18:20:25.635Z,56.59
2018-10-21T18:22:54.466Z,56.85
2018-10-21T18:25:23.274Z,57.39
2018-10-21T18:27:51.933Z,57.45
2018-10-21T18:30:20.723Z,57.59
2018-10-21T18:32:49.485Z,57.82
2018-10-21T18:35:18.244Z,58.16
2018-10-21T18:37:47.021Z,58.07
2018-10-21T18:40:15.853Z,58.54
2018-10-21T18:42:44.732Z,58.34
2018-10-21T18:45:14.736Z,58.76
2018-10-21T18:47:44.113Z,58.49
2018-10-21T18:50:14.257Z,59.28
2018-10-21T18:52:43.144Z,59.56
2018-10-21T18:55:12.365Z,59.43
2018-10-21T18:57:41.328Z,59.18
2018-10-21T19:00:13.793Z,59.22
2018-10-21T19:02:42.641Z,59.73
2018-10-21T19:05:12.038Z,59.73
2018-10-21T19:07:40.790Z,59.70
2018-10-21T19:10:11.831Z,59.62
2018-10-21T19:12:40.664Z,59.77
2018-10-21T19:15:10.871Z,60.02
2018-10-21T19:17:40.033Z,60.08
2018-10-21T19:20:11.186Z,59.84
2018-10-21T19:22:40.070Z,60.33
2018-10-21T19:25:10.359Z,60.86
2018-10-21T19:27:39.189Z,60.47
2018-10-21T19:30:09.130Z,60.93
2018-10-21T19:32:37.938Z,60.80
2018-10-21T19:35:07.611Z,61.42
2018-10-21T19:37:36.371Z,61.27
2018-10-21T19:40:05.950Z,60.43
2018-10-21T19:42:34.663Z,60.74
2018-10-21T19:45:03.654Z,61.22
2018-10-21T19:47:32.406Z,60.97
2018-10-21T19:50:01.371Z,61.78
2018-10-21T19:52:30.142Z,61.75
2018-10-21T19:54:58.837Z,61.79
2018-10-21T19:57:34.387Z,62.11
2018-10-21T20:00:03.626Z,61.72
2018-10-21T20:02:32.351Z,62.00
2018-10-21T20:05:01.069Z,61.79
2018-10-21T20:07:29.831Z,62.09
2018-10-21T20:09:58.676Z,62.35
2018-10-21T20:12:27.538Z,62.39
2018-10-21T20:14:56.231Z,63.09
2018-10-21T20:17:25.074Z,62.89
2018-10-21T20:19:53.787Z,62.78
2018-10-21T20:22:22.514Z,62.60
2018-10-21T20:24:51.212Z,63.48
2018-10-21T20:27:19.949Z,62.80
2018-10-21T20:29:48.623Z,62.79
2018-10-21T20:32:17.410Z,62.56
2018-10-21T20:34:46.109Z,63.21
2018-10-21T20:37:14.899Z,62.91
2018-10-21T20:39:50.137Z,63.20
2018-10-21T20:42:19.356Z,62.47
2018-10-21T20:44:48.153Z,63.51
2018-10-21T20:47:16.921Z,62.79
2018-10-21T20:49:45.747Z,63.52
2018-10-21T20:52:14.624Z,63.41
2018-10-21T20:54:48.543Z,63.74
2018-10-21T20:57:17.347Z,63.38
2018-10-21T20:59:47.233Z,63.46
2018-10-21T21:02:16.830Z,63.23
2018-10-21T21:04:45.501Z,63.23
2018-10-21T21:07:14.304Z,63.30
2018-10-21T21:09:43.086Z,63.40
2018-10-21T21:12:12.020Z,63.97
2018-10-21T21:14:40.746Z,63.47
2018-10-21T21:17:09.507Z,63.98
2018-10-21T21:19:38.286Z,64.31
2018-10-21T21:22:07.007Z,64.65
2018-10-21T21:24:35.712Z,64.84
2018-10-21T21:27:04.550Z,64.79
2018-10-21T21:29:33.345Z,64.25
2018-10-21T21:32:02.077Z,63.97
2018-10-21T21:34:30.880Z,64.71
2018-10-21T21:36:59.765Z,64.37
2018-10-21T21:39:28.801Z,64.00
2018-10-21T21:41:57.557Z,64.18
2018-10-21T21:44:26.382Z,63.83
2018-10-21T21:46:55.121Z,64.40
2018-10-21T21:49:23.839Z,64.59
2018-10-21T21:51:52.573Z,64.62
2018-10-21T21:54:21.256Z,64.39
2018-10-21T21:56:49.963Z,65.29
2018-10-21T21:59:18.621Z,65.49
2018-10-21T22:01:47.415Z,65.02
2018-10-21T22:04:16.130Z,64.84
2018-10-21T22:06:44.797Z,65.16
2018-10-21T22:09:14.058Z,64.65
2018-10-21T22:11:42.810Z,65.28
2018-10-21T22:14:11.726Z,65.97
2018-10-21T22:16:40.446Z,65.82
2018-10-21T22:19:09.621Z,66.08
2018-10-21T22:21:39.007Z,66.78
2018-10-21T22:24:09.068Z,67.17
2018-10-21T22:26:37.915Z,67.15
2018-10-21T22:29:07.247Z,67.51
2018-10-21T22:31:35.986Z,66.72
2018-10-21T22:34:04.998Z,66.61
2018-10-21T22:36:33.935Z,66.69
2018-10-21T22:39:02.728Z,66.37
2018-10-21T22:41:31.442Z,65.77
2018-10-21T22:44:00.227Z,64.80
2018-10-21T22:46:28.921Z,64.81
2018-10-21T22:48:57.558Z,65.30
2018-10-21T22:51:26.369Z,65.60
2018-10-21T22:53:55.390Z,66.38
2018-10-21T22:56:24.074Z,66.22
2018-10-21T22:58:52.797Z,66.74
2018-10-21T23:01:21.545Z,68.02
2018-10-21T23:03:50.209Z,68.13
2018-10-21T23:06:19.087Z,68.72
2018-10-21T23:08:47.963Z,69.35
2018-10-21T23:11:16.720Z,69.03
2018-10-21T23:13:45.441Z,68.89
2018-10-21T23:16:14.318Z,69.11
2018-10-21T23:18:43.263Z,68.76
2018-10-21T23:21:12.058Z,69.25
2018-10-21T23:23:40.929Z,69.16
2018-10-21T23:26:09.637Z,68.55
2018-10-21T23:28:38.385Z,69.04
2018-10-21T23:31:07.257Z,68.52
2018-10-21T23:33:35.929Z,68.15
2018-10-21T23:36:05.063Z,67.31
2018-10-21T23:38:34.333Z,67.53
2018-10-21T23:41:03.066Z,67.66
2018-10-21T23:43:31.850Z,68.06
2018-10-21T23:46:00.556Z,68.03
2018-10-21T23:48:29.254Z,68.71
2018-10-21T23:50:57.937Z,69.33
2018-10-21T23:53:26.786Z,68.38
2018-10-21T23:55:55.575Z,68.43
2018-10-21T23:58:24.326Z,68.53
